sensor_id;sensor_type;location;lat;lon;timestamp;pressure;altitude;pressure_sealevel;temperature;humidity
22580;BME280;11456;47.030;15.396;2024-03-29T00:00:43;96745.72;;;7.39;100.00
22580;BME280;11456;47.030;15.396;2024-03-29T00:03:10;96737.47;;;7.14;100.00
22580;BME280;11456;47.030;15.396;2024-03-29T00:05:36;96736.53;;;7.23;100.00
22580;BME280;11456;47.030;15.396;2024-03-29T00:08:03;96730.81;;;7.18;100.00
22580;BME280;11456;47.030;15.396;2024-03-29T00:10:29;96732.56;;;6.92;100.00
22580;BME280;11456;47.030;15.396;2024-03-29T00:12:54;96734.38;;;6.74;100.00
22580;BME280;11456;47.030;15.396;2024-03-29T00:15:20;96739.81;;;6.64;100.00
22580;BME280;11456;47.030;15.396;2024-03-29T00:17:46;96764.28;;;6.69;100.00
22580;BME280;11456;47.030;15.396;2024-03-29T00:20:11;96775.72;;;6.62;100.00
22580;BME280;11456;47.030;15.396;2024-03-29T00:22:37;96779.31;;;6.53;100.00
22580;BME280;11456;47.030;15.396;2024-03-29T00:25:04;96774.22;;;6.50;100.00
22580;BME280;11456;47.030;15.396;2024-03-29T00:27:29;96776.53;;;6.72;100.00
22580;BME280;11456;47.030;15.396;2024-03-29T00:29:56;96775.22;;;6.76;100.00
22580;BME280;11456;47.030;15.396;2024-03-29T00:32:22;96780.31;;;6.69;100.00
22580;BME280;11456;47.030;15.396;2024-03-29T00:34:50;96775.91;;;6.23;100.00
22580;BME280;11456;47.030;15.396;2024-03-29T00:37:16;96791.66;;;6.26;100.00
22580;BME280;11456;47.030;15.396;2024-03-29T00:39:42;96799.81;;;6.25;100.00
22580;BME280;11456;47.030;15.396;2024-03-29T00:42:08;96791.13;;;6.50;100.00
22580;BME280;11456;47.030;15.396;2024-03-29T00:44:35;96791.00;;;6.42;100.00
22580;BME280;11456;47.030;15.396;2024-03-29T00:47:02;96787.97;;;6.27;100.00
22580;BME280;11456;47.030;15.396;2024-03-29T00:49:28;96784.50;;;6.17;100.00
22580;BME280;11456;47.030;15.396;2024-03-29T00:51:55;96780.41;;;6.23;100.00
22580;BME280;11456;47.030;15.396;2024-03-29T00:54:21;96783.56;;;6.46;100.00
22580;BME280;11456;47.030;15.396;2024-03-29T00:56:46;96792.59;;;6.35;100.00
22580;BME280;11456;47.030;15.396;2024-03-29T00:59:12;96810.03;;;5.83;100.00
22580;BME280;11456;47.030;15.396;2024-03-29T01:01:38;96818.03;;;5.83;100.00
22580;BME280;11456;47.030;15.396;2024-03-29T01:04:04;96809.84;;;6.13;100.00
22580;BME280;11456;47.030;15.396;2024-03-29T01:06:29;96821.53;;;6.12;100.00
22580;BME280;11456;47.030;15.396;2024-03-29T01:08:55;96819.53;;;6.24;100.00
22580;BME280;11456;47.030;15.396;2024-03-29T01:11:21;96833.41;;;6.37;100.00
22580;BME280;11456;47.030;15.396;2024-03-29T01:13:47;96832.94;;;6.04;100.00
22580;BME280;11456;47.030;15.396;2024-03-29T01:16:12;96834.91;;;6.12;100.00
22580;BME280;11456;47.030;15.396;2024-03-29T01:18:38;96831.81;;;6.07;100.00
22580;BME280;11456;47.030;15.396;2024-03-29T01:21:04;96833.72;;;6.24;100.00
22580;BME280;11456;47.030;15.396;2024-03-29T01:23:30;96841.94;;;6.13;100.00
22580;BME280;11456;47.030;15.396;2024-03-29T01:25:55;96848.91;;;6.33;100.00
22580;BME280;11456;47.030;15.396;2024-03-29T01:28:21;96843.06;;;6.48;100.00
22580;BME280;11456;47.030;15.396;2024-03-29T01:30:53;96850.63;;;6.15;100.00
22580;BME280;11456;47.030;15.396;2024-03-29T01:33:21;96848.13;;;6.14;100.00
22580;BME280;11456;47.030;15.396;2024-03-29T01:35:47;96850.09;;;5.83;100.00
22580;BME280;11456;47.030;15.396;2024-03-29T01:38:14;96848.00;;;5.77;100.00
22580;BME280;11456;47.030;15.396;2024-03-29T01:40:40;96847.03;;;5.68;100.00
22580;BME280;11456;47.030;15.396;2024-03-29T01:43:06;96841.69;;;5.58;100.00
22580;BME280;11456;47.030;15.396;2024-03-29T01:45:41;96853.50;;;5.65;100.00
22580;BME280;11456;47.030;15.396;2024-03-29T01:48:08;96853.50;;;5.75;100.00
22580;BME280;11456;47.030;15.396;2024-03-29T01:50:36;96843.22;;;5.71;100.00
22580;BME280;11456;47.030;15.396;2024-03-29T01:53:04;96840.84;;;5.68;100.00
22580;BME280;11456;47.030;15.396;2024-03-29T01:55:31;96835.66;;;5.56;100.00
22580;BME280;11456;47.030;15.396;2024-03-29T01:57:57;96842.81;;;5.46;100.00
22580;BME280;11456;47.030;15.396;2024-03-29T02:00:24;96846.06;;;5.59;100.00
22580;BME280;11456;47.030;15.396;2024-03-29T02:02:52;96853.22;;;5.78;100.00
22580;BME280;11456;47.030;15.396;2024-03-29T02:05:18;96854.34;;;5.76;100.00
22580;BME280;11456;47.030;15.396;2024-03-29T02:07:45;96854.06;;;5.59;100.00
22580;BME280;11456;47.030;15.396;2024-03-29T02:10:14;96858.00;;;5.75;100.00
22580;BME280;11456;47.030;15.396;2024-03-29T02:12:40;96853.22;;;5.78;100.00
22580;BME280;11456;47.030;15.396;2024-03-29T02:15:07;96867.56;;;5.48;100.00
22580;BME280;11456;47.030;15.396;2024-03-29T02:17:33;96861.66;;;5.54;100.00
22580;BME280;11456;47.030;15.396;2024-03-29T02:19:59;96849.84;;;5.47;100.00
22580;BME280;11456;47.030;15.396;2024-03-29T02:22:26;96857.16;;;5.45;100.00
22580;BME280;11456;47.030;15.396;2024-03-29T02:24:53;96863.19;;;5.28;100.00
22580;BME280;11456;47.030;15.396;2024-03-29T02:27:20;96874.69;;;5.19;100.00
22580;BME280;11456;47.030;15.396;2024-03-29T02:29:46;96873.44;;;5.23;100.00
22580;BME280;11456;47.030;15.396;2024-03-29T02:32:12;96875.69;;;5.18;100.00
22580;BME280;11456;47.030;15.396;2024-03-29T02:34:37;96861.63;;;5.25;100.00
22580;BME280;11456;47.030;15.396;2024-03-29T02:37:03;96870.94;;;5.41;100.00
22580;BME280;11456;47.030;15.396;2024-03-29T02:39:29;96874.81;;;5.08;100.00
22580;BME280;11456;47.030;15.396;2024-03-29T02:41:55;96874.50;;;5.01;100.00
22580;BME280;11456;47.030;15.396;2024-03-29T02:44:20;96866.69;;;5.38;100.00
22580;BME280;11456;47.030;15.396;2024-03-29T02:46:46;96864.75;;;5.59;100.00
22580;BME280;11456;47.030;15.396;2024-03-29T02:49:12;96871.47;;;5.44;100.00
22580;BME280;11456;47.030;15.396;2024-03-29T02:51:37;96872.91;;;5.48;100.00
22580;BME280;11456;47.030;15.396;2024-03-29T02:54:03;96862.22;;;5.48;100.00
22580;BME280;11456;47.030;15.396;2024-03-29T02:56:29;96862.50;;;5.74;100.00
22580;BME280;11456;47.030;15.396;2024-03-29T02:58:55;96870.94;;;5.70;100.00
22580;BME280;11456;47.030;15.396;2024-03-29T03:01:20;96873.47;;;5.42;100.00
22580;BME280;11456;47.030;15.396;2024-03-29T03:03:46;96882.44;;;5.41;100.00
22580;BME280;11456;47.030;15.396;2024-03-29T03:06:12;96885.25;;;5.30;100.00
22580;BME280;11456;47.030;15.396;2024-03-29T03:08:38;96888.59;;;5.13;100.00
22580;BME280;11456;47.030;15.396;2024-03-29T03:11:22;96867.53;;;5.10;100.00
22580;BME280;11456;47.030;15.396;2024-03-29T03:13:48;96870.63;;;5.15;100.00
22580;BME280;11456;47.030;15.396;2024-03-29T03:16:13;96877.94;;;5.22;100.00
22580;BME280;11456;47.030;15.396;2024-03-29T03:18:39;96886.06;;;5.21;100.00
22580;BME280;11456;47.030;15.396;2024-03-29T03:21:05;96878.78;;;5.23;100.00
22580;BME280;11456;47.030;15.396;2024-03-29T03:23:31;96890.00;;;5.17;100.00
22580;BME280;11456;47.030;15.396;2024-03-29T03:25:58;96902.38;;;5.18;100.00
22580;BME280;11456;47.030;15.396;2024-03-29T03:28:25;96917.19;;;4.92;100.00
22580;BME280;11456;47.030;15.396;2024-03-29T03:30:51;96920.66;;;4.82;100.00
22580;BME280;11456;47.030;15.396;2024-03-29T03:33:17;96912.72;;;4.92;100.00
22580;BME280;11456;47.030;15.396;2024-03-29T03:35:43;96917.28;;;4.80;100.00
22580;BME280;11456;47.030;15.396;2024-03-29T03:38:09;96903.69;;;4.83;100.00
22580;BME280;11456;47.030;15.396;2024-03-29T03:40:35;96897.09;;;4.88;100.00
22580;BME280;11456;47.030;15.396;2024-03-29T03:43:02;96900.59;;;4.88;100.00
22580;BME280;11456;47.030;15.396;2024-03-29T03:45:28;96912.75;;;5.11;100.00
22580;BME280;11456;47.030;15.396;2024-03-29T03:47:53;96908.72;;;4.87;100.00
22580;BME280;11456;47.030;15.396;2024-03-29T03:50:19;96914.38;;;4.53;100.00
22580;BME280;11456;47.030;15.396;2024-03-29T03:52:46;96898.41;;;4.63;100.00
22580;BME280;11456;47.030;15.396;2024-03-29T03:55:11;96894.94;;;4.72;100.00
22580;BME280;11456;47.030;15.396;2024-03-29T03:57:37;96893.72;;;4.55;100.00
22580;BME280;11456;47.030;15.396;2024-03-29T04:00:03;96894.50;;;4.36;100.00
22580;BME280;11456;47.030;15.396;2024-03-29T04:02:37;96899.59;;;4.49;100.00
22580;BME280;11456;47.030;15.396;2024-03-29T04:05:03;96897.13;;;4.57;100.00
22580;BME280;11456;47.030;15.396;2024-03-29T04:07:29;96896.34;;;4.66;100.00
22580;BME280;11456;47.030;15.396;2024-03-29T04:09:54;96904.50;;;4.44;100.00
22580;BME280;11456;47.030;15.396;2024-03-29T04:12:20;96902.56;;;4.25;100.00
22580;BME280;11456;47.030;15.396;2024-03-29T04:14:46;96916.13;;;4.43;100.00
22580;BME280;11456;47.030;15.396;2024-03-29T04:17:11;96917.34;;;4.60;100.00
22580;BME280;11456;47.030;15.396;2024-03-29T04:19:37;96914.47;;;5.22;100.00
22580;BME280;11456;47.030;15.396;2024-03-29T04:22:03;96928.13;;;4.89;100.00
22580;BME280;11456;47.030;15.396;2024-03-29T04:24:29;96929.88;;;4.99;100.00
22580;BME280;11456;47.030;15.396;2024-03-29T04:26:54;96928.38;;;5.25;100.00
22580;BME280;11456;47.030;15.396;2024-03-29T04:29:20;96939.69;;;4.68;100.00
22580;BME280;11456;47.030;15.396;2024-03-29T04:31:46;96941.38;;;4.39;100.00
22580;BME280;11456;47.030;15.396;2024-03-29T04:34:11;96943.06;;;4.40;100.00
22580;BME280;11456;47.030;15.396;2024-03-29T04:36:37;96952.03;;;4.39;100.00
22580;BME280;11456;47.030;15.396;2024-03-29T04:39:04;96954.91;;;4.47;100.00
22580;BME280;11456;47.030;15.396;2024-03-29T04:41:30;96960.34;;;4.46;100.00
22580;BME280;11456;47.030;15.396;2024-03-29T04:44:03;96951.63;;;4.64;100.00
22580;BME280;11456;47.030;15.396;2024-03-29T04:46:30;96973.41;;;4.49;100.00
22580;BME280;11456;47.030;15.396;2024-03-29T04:48:57;96971.59;;;4.49;100.00
22580;BME280;11456;47.030;15.396;2024-03-29T04:51:23;96967.78;;;5.03;100.00
22580;BME280;11456;47.030;15.396;2024-03-29T04:53:49;96981.69;;;4.25;100.00
22580;BME280;11456;47.030;15.396;2024-03-29T04:56:15;96978.41;;;4.42;100.00
22580;BME280;11456;47.030;15.396;2024-03-29T04:58:41;96982.44;;;4.57;100.00
22580;BME280;11456;47.030;15.396;2024-03-29T05:01:07;96978.72;;;4.69;100.00
22580;BME280;11456;47.030;15.396;2024-03-29T05:03:33;96985.97;;;4.37;100.00
22580;BME280;11456;47.030;15.396;2024-03-29T05:05:58;97000.38;;;4.55;100.00
22580;BME280;11456;47.030;15.396;2024-03-29T05:08:24;96997.16;;;4.82;100.00
22580;BME280;11456;47.030;15.396;2024-03-29T05:10:50;96991.44;;;4.87;100.00
22580;BME280;11456;47.030;15.396;2024-03-29T05:13:17;96997.91;;;4.63;100.00
22580;BME280;11456;47.030;15.396;2024-03-29T05:15:44;96995.34;;;4.82;100.00
22580;BME280;11456;47.030;15.396;2024-03-29T05:18:09;96997.38;;;5.00;100.00
22580;BME280;11456;47.030;15.396;2024-03-29T05:20:35;96991.81;;;5.12;100.00
22580;BME280;11456;47.030;15.396;2024-03-29T05:23:02;96986.97;;;5.27;100.00
22580;BME280;11456;47.030;15.396;2024-03-29T05:25:27;96989.81;;;5.35;100.00
22580;BME280;11456;47.030;15.396;2024-03-29T05:27:53;96990.41;;;5.48;100.00
22580;BME280;11456;47.030;15.396;2024-03-29T05:30:19;96994.09;;;5.67;100.00
22580;BME280;11456;47.030;15.396;2024-03-29T05:32:45;96994.22;;;5.65;100.00
22580;BME280;11456;47.030;15.396;2024-03-29T05:35:11;96991.28;;;5.78;100.00
22580;BME280;11456;47.030;15.396;2024-03-29T05:37:36;96998.38;;;5.88;100.00
22580;BME280;11456;47.030;15.396;2024-03-29T05:40:03;96996.25;;;5.92;100.00
22580;BME280;11456;47.030;15.396;2024-03-29T05:42:32;96984.16;;;6.46;100.00
22580;BME280;11456;47.030;15.396;2024-03-29T05:44:59;96986.78;;;6.65;100.00
22580;BME280;11456;47.030;15.396;2024-03-29T05:47:25;96993.28;;;6.53;100.00
22580;BME280;11456;47.030;15.396;2024-03-29T05:49:51;96992.94;;;6.75;100.00
22580;BME280;11456;47.030;15.396;2024-03-29T05:52:16;96993.19;;;6.91;100.00
22580;BME280;11456;47.030;15.396;2024-03-29T05:54:43;96984.72;;;6.96;100.00
22580;BME280;11456;47.030;15.396;2024-03-29T05:57:09;96990.34;;;7.02;100.00
22580;BME280;11456;47.030;15.396;2024-03-29T05:59:35;96987.19;;;7.07;100.00
22580;BME280;11456;47.030;15.396;2024-03-29T06:02:02;96997.56;;;7.29;100.00
22580;BME280;11456;47.030;15.396;2024-03-29T06:04:28;96996.47;;;7.12;100.00
22580;BME280;11456;47.030;15.396;2024-03-29T06:07:00;96998.97;;;7.23;100.00
22580;BME280;11456;47.030;15.396;2024-03-29T06:09:26;96989.75;;;7.63;100.00
22580;BME280;11456;47.030;15.396;2024-03-29T06:11:54;96997.50;;;7.39;100.00
22580;BME280;11456;47.030;15.396;2024-03-29T06:14:20;97002.34;;;7.25;100.00
22580;BME280;11456;47.030;15.396;2024-03-29T06:17:04;96991.34;;;7.29;100.00
22580;BME280;11456;47.030;15.396;2024-03-29T06:19:51;96981.31;;;7.31;100.00
22580;BME280;11456;47.030;15.396;2024-03-29T06:22:20;96964.84;;;7.25;100.00
22580;BME280;11456;47.030;15.396;2024-03-29T06:24:46;96963.59;;;7.92;100.00
22580;BME280;11456;47.030;15.396;2024-03-29T06:27:13;96978.91;;;8.18;100.00
22580;BME280;11456;47.030;15.396;2024-03-29T06:29:43;96960.88;;;8.28;100.00
22580;BME280;11456;47.030;15.396;2024-03-29T06:32:09;96972.41;;;8.38;100.00
22580;BME280;11456;47.030;15.396;2024-03-29T06:34:35;96961.06;;;8.09;100.00
22580;BME280;11456;47.030;15.396;2024-03-29T06:37:00;96953.00;;;7.73;100.00
22580;BME280;11456;47.030;15.396;2024-03-29T06:39:26;96962.22;;;8.24;100.00
22580;BME280;11456;47.030;15.396;2024-03-29T06:41:52;96955.44;;;8.55;100.00
22580;BME280;11456;47.030;15.396;2024-03-29T06:44:18;96954.00;;;9.29;100.00
22580;BME280;11456;47.030;15.396;2024-03-29T06:46:43;96958.22;;;9.31;100.00
22580;BME280;11456;47.030;15.396;2024-03-29T06:49:09;96955.03;;;8.94;100.00
22580;BME280;11456;47.030;15.396;2024-03-29T06:51:35;96949.31;;;8.71;100.00
22580;BME280;11456;47.030;15.396;2024-03-29T06:54:00;96962.50;;;9.08;100.00
22580;BME280;11456;47.030;15.396;2024-03-29T06:56:26;96965.88;;;9.18;100.00
22580;BME280;11456;47.030;15.396;2024-03-29T06:58:52;96974.97;;;9.67;100.00
22580;BME280;11456;47.030;15.396;2024-03-29T07:01:18;96990.59;;;9.21;100.00
22580;BME280;11456;47.030;15.396;2024-03-29T07:03:44;96984.19;;;8.89;100.00
22580;BME280;11456;47.030;15.396;2024-03-29T07:06:10;96989.59;;;8.97;100.00
22580;BME280;11456;47.030;15.396;2024-03-29T07:08:36;96980.88;;;9.71;100.00
22580;BME280;11456;47.030;15.396;2024-03-29T07:11:02;96990.03;;;10.02;100.00
22580;BME280;11456;47.030;15.396;2024-03-29T07:13:29;96993.16;;;10.23;100.00
22580;BME280;11456;47.030;15.396;2024-03-29T07:16:01;96987.94;;;10.30;100.00
22580;BME280;11456;47.030;15.396;2024-03-29T07:18:27;96981.00;;;10.92;100.00
22580;BME280;11456;47.030;15.396;2024-03-29T07:20:54;96989.69;;;10.05;100.00
22580;BME280;11456;47.030;15.396;2024-03-29T07:23:19;96986.06;;;10.71;100.00
22580;BME280;11456;47.030;15.396;2024-03-29T07:26:03;96991.28;;;10.32;100.00
22580;BME280;11456;47.030;15.396;2024-03-29T07:28:30;96987.41;;;9.68;100.00
22580;BME280;11456;47.030;15.396;2024-03-29T07:30:56;96981.31;;;10.08;100.00
22580;BME280;11456;47.030;15.396;2024-03-29T07:33:23;96961.63;;;10.07;100.00
22580;BME280;11456;47.030;15.396;2024-03-29T07:35:52;96963.88;;;10.28;100.00
22580;BME280;11456;47.030;15.396;2024-03-29T07:38:19;96958.84;;;10.41;100.00
22580;BME280;11456;47.030;15.396;2024-03-29T07:40:47;96966.59;;;10.36;100.00
22580;BME280;11456;47.030;15.396;2024-03-29T07:43:13;96954.69;;;11.10;100.00
22580;BME280;11456;47.030;15.396;2024-03-29T07:45:42;96948.41;;;11.65;100.00
22580;BME280;11456;47.030;15.396;2024-03-29T07:48:12;96967.31;;;11.18;100.00
22580;BME280;11456;47.030;15.396;2024-03-29T07:50:47;96954.41;;;10.97;100.00
22580;BME280;11456;47.030;15.396;2024-03-29T07:53:13;96945.63;;;11.89;100.00
22580;BME280;11456;47.030;15.396;2024-03-29T07:55:40;96965.81;;;11.62;100.00
22580;BME280;11456;47.030;15.396;2024-03-29T07:58:06;96948.41;;;12.27;100.00
22580;BME280;11456;47.030;15.396;2024-03-29T08:00:34;96946.94;;;12.62;100.00
22580;BME280;11456;47.030;15.396;2024-03-29T08:03:00;96963.13;;;12.47;97.41
22580;BME280;11456;47.030;15.396;2024-03-29T08:05:29;96945.53;;;13.03;91.79
22580;BME280;11456;47.030;15.396;2024-03-29T08:07:55;96956.31;;;12.51;92.57
22580;BME280;11456;47.030;15.396;2024-03-29T08:10:21;96961.16;;;13.16;80.11
22580;BME280;11456;47.030;15.396;2024-03-29T08:12:47;96951.53;;;13.28;81.30
22580;BME280;11456;47.030;15.396;2024-03-29T08:15:12;96945.25;;;11.92;91.41
22580;BME280;11456;47.030;15.396;2024-03-29T08:17:38;96952.34;;;11.93;95.78
22580;BME280;11456;47.030;15.396;2024-03-29T08:20:04;96961.25;;;11.63;100.00
22580;BME280;11456;47.030;15.396;2024-03-29T08:22:30;96956.31;;;12.51;95.28
22580;BME280;11456;47.030;15.396;2024-03-29T08:24:59;96962.34;;;12.16;86.98
22580;BME280;11456;47.030;15.396;2024-03-29T08:27:29;96957.78;;;12.39;89.95
22580;BME280;11456;47.030;15.396;2024-03-29T08:29:54;96951.13;;;12.27;90.32
22580;BME280;11456;47.030;15.396;2024-03-29T08:32:20;96958.66;;;12.09;87.93
22580;BME280;11456;47.030;15.396;2024-03-29T08:34:46;96955.09;;;12.76;87.32
22580;BME280;11456;47.030;15.396;2024-03-29T08:37:12;96955.59;;;13.09;79.38
22580;BME280;11456;47.030;15.396;2024-03-29T08:39:38;96951.81;;;13.62;80.04
22580;BME280;11456;47.030;15.396;2024-03-29T08:42:04;96951.88;;;13.10;79.36
22580;BME280;11456;47.030;15.396;2024-03-29T08:44:37;96941.13;;;14.48;75.00
22580;BME280;11456;47.030;15.396;2024-03-29T08:47:03;96944.28;;;13.94;65.88
22580;BME280;11456;47.030;15.396;2024-03-29T08:49:29;96945.84;;;13.67;68.68
22580;BME280;11456;47.030;15.396;2024-03-29T08:51:58;96944.19;;;14.23;64.78
22580;BME280;11456;47.030;15.396;2024-03-29T08:54:25;96930.69;;;14.44;58.66
22580;BME280;11456;47.030;15.396;2024-03-29T08:56:53;96928.22;;;14.50;60.43
22580;BME280;11456;47.030;15.396;2024-03-29T08:59:19;96926.06;;;15.15;60.46
22580;BME280;11456;47.030;15.396;2024-03-29T09:01:45;96924.69;;;15.67;56.83
22580;BME280;11456;47.030;15.396;2024-03-29T09:04:14;96925.47;;;14.28;56.32
22580;BME280;11456;47.030;15.396;2024-03-29T09:06:41;96910.25;;;14.91;66.87
22580;BME280;11456;47.030;15.396;2024-03-29T09:09:07;96916.97;;;15.02;62.92
22580;BME280;11456;47.030;15.396;2024-03-29T09:11:33;96914.72;;;14.35;66.17
22580;BME280;11456;47.030;15.396;2024-03-29T09:13:59;96911.94;;;14.99;63.04
22580;BME280;11456;47.030;15.396;2024-03-29T09:16:26;96920.25;;;15.53;60.48
22580;BME280;11456;47.030;15.396;2024-03-29T09:18:54;96911.41;;;15.51;61.29
22580;BME280;11456;47.030;15.396;2024-03-29T09:21:20;96901.50;;;16.52;59.45
22580;BME280;11456;47.030;15.396;2024-03-29T09:23:46;96900.75;;;15.90;58.29
22580;BME280;11456;47.030;15.396;2024-03-29T09:26:14;96911.72;;;14.66;70.76
22580;BME280;11456;47.030;15.396;2024-03-29T09:28:40;96904.16;;;16.06;64.51
22580;BME280;11456;47.030;15.396;2024-03-29T09:31:06;96894.22;;;15.72;65.98
22580;BME280;11456;47.030;15.396;2024-03-29T09:33:32;96891.47;;;15.31;65.74
22580;BME280;11456;47.030;15.396;2024-03-29T09:35:59;96897.19;;;15.36;66.87
22580;BME280;11456;47.030;15.396;2024-03-29T09:38:25;96890.13;;;15.48;69.04
22580;BME280;11456;47.030;15.396;2024-03-29T09:41:08;96904.72;;;14.78;68.96
22580;BME280;11456;47.030;15.396;2024-03-29T09:43:35;96895.16;;;14.82;74.03
22580;BME280;11456;47.030;15.396;2024-03-29T09:46:02;96906.19;;;15.90;65.40
22580;BME280;11456;47.030;15.396;2024-03-29T09:48:28;96906.28;;;14.66;71.17
22580;BME280;11456;47.030;15.396;2024-03-29T09:51:05;96908.78;;;14.39;73.46
22580;BME280;11456;47.030;15.396;2024-03-29T09:53:36;96899.66;;;14.47;72.48
22580;BME280;11456;47.030;15.396;2024-03-29T09:56:06;96898.59;;;14.97;71.96
22580;BME280;11456;47.030;15.396;2024-03-29T09:58:33;96899.63;;;14.68;71.53
22580;BME280;11456;47.030;15.396;2024-03-29T10:01:00;96884.63;;;14.72;75.16
22580;BME280;11456;47.030;15.396;2024-03-29T10:03:27;96893.38;;;14.68;75.89
22580;BME280;11456;47.030;15.396;2024-03-29T10:05:59;96890.41;;;14.63;77.24
22580;BME280;11456;47.030;15.396;2024-03-29T10:08:26;96886.09;;;14.47;79.29
22580;BME280;11456;47.030;15.396;2024-03-29T10:10:54;96887.44;;;14.15;86.11
22580;BME280;11456;47.030;15.396;2024-03-29T10:13:19;96885.22;;;14.40;82.68
22580;BME280;11456;47.030;15.396;2024-03-29T10:15:46;96880.09;;;14.30;81.80
22580;BME280;11456;47.030;15.396;2024-03-29T10:18:16;96880.28;;;14.29;93.16
22580;BME280;11456;47.030;15.396;2024-03-29T10:20:43;96890.94;;;15.42;78.26
22580;BME280;11456;47.030;15.396;2024-03-29T10:23:09;96887.84;;;15.10;82.18
22580;BME280;11456;47.030;15.396;2024-03-29T10:25:35;96893.22;;;15.79;80.78
22580;BME280;11456;47.030;15.396;2024-03-29T10:28:00;96896.69;;;14.63;90.97
22580;BME280;11456;47.030;15.396;2024-03-29T10:30:29;96881.53;;;14.05;95.50
22580;BME280;11456;47.030;15.396;2024-03-29T10:32:56;96885.44;;;15.29;88.56
22580;BME280;11456;47.030;15.396;2024-03-29T10:35:24;96890.34;;;16.00;82.49
22580;BME280;11456;47.030;15.396;2024-03-29T10:37:52;96897.06;;;16.11;77.64
22580;BME280;11456;47.030;15.396;2024-03-29T10:40:23;96898.53;;;16.14;75.52
22580;BME280;11456;47.030;15.396;2024-03-29T10:42:52;96883.03;;;15.12;79.83
22580;BME280;11456;47.030;15.396;2024-03-29T10:45:18;96886.78;;;15.46;79.80
22580;BME280;11456;47.030;15.396;2024-03-29T10:47:44;96869.56;;;15.60;80.23
22580;BME280;11456;47.030;15.396;2024-03-29T10:50:12;96875.22;;;14.40;88.19
22580;BME280;11456;47.030;15.396;2024-03-29T10:52:39;96864.06;;;15.12;89.96
22580;BME280;11456;47.030;15.396;2024-03-29T10:55:09;96839.81;;;15.04;92.11
22580;BME280;11456;47.030;15.396;2024-03-29T10:57:40;96851.63;;;15.31;91.77
22580;BME280;11456;47.030;15.396;2024-03-29T11:00:14;96860.28;;;15.48;83.01
22580;BME280;11456;47.030;15.396;2024-03-29T11:03:05;96841.75;;;15.58;90.66
22580;BME280;11456;47.030;15.396;2024-03-29T11:05:35;96845.22;;;15.93;86.13
22580;BME280;11456;47.030;15.396;2024-03-29T11:08:02;96843.63;;;15.10;87.62
22580;BME280;11456;47.030;15.396;2024-03-29T11:10:34;96836.31;;;14.76;92.68
22580;BME280;11456;47.030;15.396;2024-03-29T11:15:53;96851.84;;;15.77;90.08
22580;BME280;11456;47.030;15.396;2024-03-29T11:18:20;96844.59;;;16.04;85.35
22580;BME280;11456;47.030;15.396;2024-03-29T11:20:47;96844.81;;;16.02;84.46
22580;BME280;11456;47.030;15.396;2024-03-29T11:23:19;96850.97;;;15.63;90.41
22580;BME280;11456;47.030;15.396;2024-03-29T11:25:49;96845.25;;;16.13;88.74
22580;BME280;11456;47.030;15.396;2024-03-29T11:28:25;96841.09;;;16.23;89.45
22580;BME280;11456;47.030;15.396;2024-03-29T11:30:52;96852.84;;;15.22;94.89
22580;BME280;11456;47.030;15.396;2024-03-29T11:36:16;96858.16;;;15.91;95.08
22580;BME280;11456;47.030;15.396;2024-03-29T11:38:45;96855.69;;;16.09;88.84
22580;BME280;11456;47.030;15.396;2024-03-29T11:41:16;96849.63;;;16.14;86.04
22580;BME280;11456;47.030;15.396;2024-03-29T11:43:42;96852.78;;;16.17;88.61
22580;BME280;11456;47.030;15.396;2024-03-29T11:46:10;96844.44;;;16.32;86.38
22580;BME280;11456;47.030;15.396;2024-03-29T11:48:36;96842.09;;;16.02;88.91
22580;BME280;11456;47.030;15.396;2024-03-29T11:51:03;96847.72;;;16.08;89.95
22580;BME280;11456;47.030;15.396;2024-03-29T11:53:30;96832.69;;;15.98;89.56
22580;BME280;11456;47.030;15.396;2024-03-29T11:56:00;96827.06;;;16.33;85.16
22580;BME280;11456;47.030;15.396;2024-03-29T11:58:28;96818.66;;;15.88;90.83
22580;BME280;11456;47.030;15.396;2024-03-29T12:00:55;96825.16;;;16.07;89.92
22580;BME280;11456;47.030;15.396;2024-03-29T12:03:24;96815.16;;;16.21;86.58
22580;BME280;11456;47.030;15.396;2024-03-29T12:05:51;96807.16;;;15.73;91.64
22580;BME280;11456;47.030;15.396;2024-03-29T12:08:17;96810.06;;;15.65;91.93
22580;BME280;11456;47.030;15.396;2024-03-29T12:10:43;96811.75;;;15.66;91.27
22580;BME280;11456;47.030;15.396;2024-03-29T12:13:10;96814.66;;;15.64;93.98
22580;BME280;11456;47.030;15.396;2024-03-29T12:15:36;96814.16;;;15.48;96.07
22580;BME280;11456;47.030;15.396;2024-03-29T12:18:04;96817.81;;;15.27;93.59
22580;BME280;11456;47.030;15.396;2024-03-29T12:20:37;96812.78;;;15.72;93.03
22580;BME280;11456;47.030;15.396;2024-03-29T12:23:05;96824.22;;;15.54;94.86
22580;BME280;11456;47.030;15.396;2024-03-29T12:25:33;96810.91;;;15.66;90.77
22580;BME280;11456;47.030;15.396;2024-03-29T12:28:00;96808.19;;;15.72;90.97
22580;BME280;11456;47.030;15.396;2024-03-29T12:30:26;96822.03;;;15.43;94.98
22580;BME280;11456;47.030;15.396;2024-03-29T12:33:07;96811.53;;;15.61;94.41
22580;BME280;11456;47.030;15.396;2024-03-29T12:35:33;96805.28;;;15.67;97.16
22580;BME280;11456;47.030;15.396;2024-03-29T12:38:01;96794.66;;;15.85;95.40
22580;BME280;11456;47.030;15.396;2024-03-29T12:40:28;96809.53;;;15.42;96.43
22580;BME280;11456;47.030;15.396;2024-03-29T12:42:56;96810.16;;;15.44;94.77
22580;BME280;11456;47.030;15.396;2024-03-29T12:45:24;96816.22;;;15.46;95.90
22580;BME280;11456;47.030;15.396;2024-03-29T12:47:50;96806.63;;;15.50;95.63
22580;BME280;11456;47.030;15.396;2024-03-29T12:50:23;96807.94;;;15.54;95.20
22580;BME280;11456;47.030;15.396;2024-03-29T12:52:54;96811.19;;;16.10;96.19
22580;BME280;11456;47.030;15.396;2024-03-29T12:55:21;96815.78;;;16.03;97.81